createdAt,value
2023-03-31T00:01:00.984Z,9.30
2023-03-31T00:03:27.956Z,9.30
2023-03-31T00:05:59.692Z,9.30
2023-03-31T00:08:35.997Z,9.40
2023-03-31T00:11:10.031Z,9.40
2023-03-31T00:13:37.108Z,9.30
2023-03-31T00:16:07.312Z,9.30
2023-03-31T00:18:34.759Z,9.30
2023-03-31T00:21:14.381Z,9.20
2023-03-31T00:23:41.889Z,9.20
2023-03-31T00:26:09.058Z,9.20
2023-03-31T00:28:36.119Z,9.20
2023-03-31T00:31:03.570Z,9.20
2023-03-31T00:33:30.775Z,9.20
2023-03-31T00:36:06.447Z,9.20
2023-03-31T00:38:34.407Z,9.20
2023-03-31T00:41:02.436Z,9.20
2023-03-31T00:43:35.710Z,9.10
2023-03-31T00:46:27.500Z,9.20
2023-03-31T00:48:57.725Z,9.00
2023-03-31T00:51:27.505Z,8.90
2023-03-31T00:53:59.847Z,8.90
2023-03-31T00:56:33.461Z,8.90
2023-03-31T00:59:04.083Z,8.80
2023-03-31T01:01:31.591Z,8.80
2023-03-31T01:03:59.290Z,8.80
2023-03-31T01:06:30.805Z,8.80
2023-03-31T01:08:58.120Z,8.80
2023-03-31T01:11:27.680Z,8.70
2023-03-31T01:13:56.698Z,8.70
2023-03-31T01:16:23.803Z,8.70
2023-03-31T01:18:50.968Z,8.70
2023-03-31T01:21:32.892Z,8.70
2023-03-31T01:24:15.025Z,8.70
2023-03-31T01:26:53.956Z,8.70
2023-03-31T01:29:32.143Z,8.80
2023-03-31T01:32:04.729Z,8.90
2023-03-31T01:34:57.888Z,8.90
2023-03-31T01:37:52.452Z,9.00
2023-03-31T01:41:01.627Z,9.10
2023-03-31T01:44:08.939Z,9.10
2023-03-31T01:46:52.451Z,9.20
2023-03-31T01:49:30.600Z,9.10
2023-03-31T01:51:57.503Z,9.20
2023-03-31T01:54:39.229Z,9.20
2023-03-31T01:57:20.930Z,9.20
2023-03-31T02:00:11.498Z,9.20
2023-03-31T02:03:04.153Z,9.20
2023-03-31T02:05:37.634Z,9.20
2023-03-31T02:08:32.163Z,9.30
2023-03-31T02:11:00.473Z,9.30
2023-03-31T02:13:30.551Z,9.40
2023-03-31T02:16:02.827Z,9.40
2023-03-31T02:18:33.144Z,9.40
2023-03-31T02:21:01.198Z,9.50
2023-03-31T02:23:31.863Z,9.50
2023-03-31T02:26:08.072Z,9.40
2023-03-31T02:28:35.825Z,9.40
2023-03-31T02:31:20.376Z,9.40
2023-03-31T02:33:48.773Z,9.40
2023-03-31T02:36:16.750Z,9.40
2023-03-31T02:38:53.287Z,9.30
2023-03-31T02:41:20.164Z,9.30
2023-03-31T02:43:47.244Z,9.30
2023-03-31T02:46:14.664Z,9.30
2023-03-31T02:48:49.330Z,9.30
2023-03-31T02:51:44.878Z,9.20
2023-03-31T02:54:23.694Z,9.30
2023-03-31T02:57:39.700Z,9.30
2023-03-31T03:00:31.144Z,9.40
2023-03-31T03:03:36.034Z,9.40
2023-03-31T03:06:13.603Z,9.40
2023-03-31T03:09:18.386Z,9.40
2023-03-31T03:12:00.392Z,9.40
2023-03-31T03:14:48.668Z,9.40
2023-03-31T03:17:22.585Z,9.40
2023-03-31T03:20:02.760Z,9.40
2023-03-31T03:22:29.718Z,9.40
2023-03-31T03:24:56.543Z,9.40
2023-03-31T03:27:23.946Z,9.40
2023-03-31T03:29:51.103Z,9.50
2023-03-31T03:32:18.015Z,9.40
2023-03-31T03:34:44.849Z,9.50
2023-03-31T03:37:11.764Z,9.40
2023-03-31T03:39:38.760Z,9.40
2023-03-31T03:42:05.857Z,9.40
2023-03-31T03:44:32.752Z,9.40
2023-03-31T03:46:59.665Z,9.30
2023-03-31T03:49:26.768Z,9.20
2023-03-31T03:51:53.806Z,9.20
2023-03-31T03:54:20.811Z,9.10
2023-03-31T03:56:47.730Z,9.10
2023-03-31T03:59:14.687Z,9.10
2023-03-31T04:01:41.557Z,9.10
2023-03-31T04:04:08.617Z,9.00
2023-03-31T04:06:35.663Z,9.00
2023-03-31T04:09:03.748Z,9.10
2023-03-31T04:11:31.026Z,9.00
2023-03-31T04:14:00.989Z,9.10
2023-03-31T04:16:28.945Z,9.00
2023-03-31T04:18:58.950Z,9.00
2023-03-31T04:21:25.850Z,9.00
2023-03-31T04:24:04.531Z,8.90
2023-03-31T04:26:43.552Z,8.80
2023-03-31T04:29:22.801Z,8.80
2023-03-31T04:31:50.839Z,8.70
2023-03-31T04:34:17.744Z,8.70
2023-03-31T04:36:47.784Z,8.60
2023-03-31T04:39:26.711Z,8.60
2023-03-31T04:41:54.398Z,8.60
2023-03-31T04:44:21.462Z,8.40
2023-03-31T04:46:48.620Z,8.50
2023-03-31T04:49:16.010Z,8.40
2023-03-31T04:51:43.000Z,8.40
2023-03-31T04:54:09.841Z,8.40
2023-03-31T04:56:36.766Z,8.30
2023-03-31T04:59:03.931Z,8.30
2023-03-31T05:01:36.438Z,8.30
2023-03-31T05:04:06.291Z,8.30
2023-03-31T05:06:33.769Z,8.20
2023-03-31T05:09:00.781Z,8.30
2023-03-31T05:11:28.983Z,8.20
2023-03-31T05:13:55.696Z,8.20
2023-03-31T05:16:22.778Z,8.20
2023-03-31T05:18:50.917Z,8.20
2023-03-31T05:21:19.072Z,8.30
2023-03-31T05:23:47.911Z,8.30
2023-03-31T05:26:15.421Z,8.40
2023-03-31T05:28:42.967Z,8.50
2023-03-31T05:31:11.339Z,8.50
2023-03-31T05:33:41.969Z,8.60
2023-03-31T05:36:11.818Z,8.60
2023-03-31T05:38:39.291Z,8.60
2023-03-31T05:41:07.456Z,8.70
2023-03-31T05:43:34.425Z,8.70
2023-03-31T05:46:01.705Z,8.70
2023-03-31T05:48:29.408Z,8.80
2023-03-31T05:50:59.425Z,8.80
2023-03-31T05:53:26.792Z,8.70
2023-03-31T05:55:58.727Z,8.80
2023-03-31T05:58:26.493Z,8.80
2023-03-31T06:01:06.246Z,8.80
2023-03-31T06:03:38.840Z,8.80
2023-03-31T06:06:07.910Z,8.70
2023-03-31T06:08:35.876Z,8.70
2023-03-31T06:11:08.279Z,8.70
2023-03-31T06:13:36.635Z,8.80
2023-03-31T06:16:04.552Z,8.90
2023-03-31T06:18:34.040Z,9.00
2023-03-31T06:21:01.427Z,9.10
2023-03-31T06:23:28.415Z,9.10
2023-03-31T06:25:59.135Z,9.20
2023-03-31T06:28:25.992Z,9.30
2023-03-31T06:31:04.498Z,9.50
2023-03-31T06:33:32.479Z,9.60
2023-03-31T06:36:01.653Z,9.70
2023-03-31T06:38:28.794Z,9.90
2023-03-31T06:40:56.127Z,10.00
2023-03-31T06:43:23.215Z,10.10
2023-03-31T06:45:52.557Z,10.20
2023-03-31T06:48:22.509Z,10.30
2023-03-31T06:50:50.254Z,10.40
2023-03-31T06:53:17.585Z,10.50
2023-03-31T06:55:44.496Z,10.60
2023-03-31T06:58:12.278Z,10.70
2023-03-31T07:00:39.069Z,10.90
2023-03-31T07:03:06.710Z,11.00
2023-03-31T07:05:33.617Z,11.00
2023-03-31T07:08:01.039Z,11.10
2023-03-31T07:10:29.857Z,11.10
2023-03-31T07:12:56.872Z,11.00
2023-03-31T07:15:25.204Z,11.10
2023-03-31T07:17:54.006Z,11.00
2023-03-31T07:20:21.229Z,11.20
2023-03-31T07:22:49.390Z,11.20
2023-03-31T07:25:20.758Z,11.30
2023-03-31T07:27:47.676Z,11.40
2023-03-31T07:30:19.597Z,11.50
2023-03-31T07:32:48.574Z,11.60
2023-03-31T07:35:16.408Z,11.60
2023-03-31T07:37:45.804Z,11.70
2023-03-31T07:40:19.145Z,11.90
2023-03-31T07:42:49.151Z,12.00
2023-03-31T07:45:17.187Z,12.10
2023-03-31T07:47:48.072Z,12.30
2023-03-31T07:50:16.117Z,12.30
2023-03-31T07:52:46.708Z,12.30
2023-03-31T07:55:15.476Z,12.40
2023-03-31T07:57:43.508Z,12.50
2023-03-31T08:00:12.691Z,12.60
2023-03-31T08:02:43.645Z,12.70
2023-03-31T08:05:12.827Z,12.80
2023-03-31T08:07:42.176Z,13.00
2023-03-31T08:10:12.053Z,13.10
2023-03-31T08:12:38.985Z,13.20
2023-03-31T08:15:06.583Z,13.20
2023-03-31T08:17:33.438Z,13.20
2023-03-31T08:20:05.127Z,13.20
2023-03-31T08:22:34.051Z,13.20
2023-03-31T08:25:01.030Z,13.30
2023-03-31T08:27:28.023Z,13.40
2023-03-31T08:29:55.172Z,13.40
2023-03-31T08:32:27.807Z,13.40
2023-03-31T08:34:54.726Z,13.40
2023-03-31T08:37:21.587Z,13.40
2023-03-31T08:39:48.419Z,13.30
2023-03-31T08:42:16.183Z,13.30
2023-03-31T08:44:45.944Z,13.40
2023-03-31T08:47:23.032Z,13.40
2023-03-31T08:49:55.099Z,13.40
2023-03-31T08:52:43.133Z,13.40
2023-03-31T08:55:22.086Z,13.60
2023-03-31T08:58:01.713Z,13.60
2023-03-31T09:00:59.089Z,13.80
2023-03-31T09:03:48.103Z,13.90
2023-03-31T09:06:21.966Z,14.00
2023-03-31T09:08:48.846Z,14.10
2023-03-31T09:12:00.560Z,14.20
2023-03-31T09:15:03.787Z,14.40
2023-03-31T09:17:46.123Z,14.30
2023-03-31T09:20:31.628Z,14.20
2023-03-31T09:23:25.521Z,14.30
2023-03-31T09:25:52.987Z,14.30
2023-03-31T09:28:22.630Z,14.40
2023-03-31T09:30:49.828Z,14.50
2023-03-31T09:33:32.160Z,14.50
2023-03-31T09:36:00.587Z,14.60
2023-03-31T09:38:31.307Z,14.60
2023-03-31T09:40:59.920Z,14.60
2023-03-31T09:43:28.986Z,14.60
2023-03-31T09:48:29.197Z,14.30
2023-03-31T09:50:59.990Z,14.20
2023-03-31T09:53:46.131Z,14.10
2023-03-31T09:56:14.279Z,14.20
2023-03-31T09:58:46.426Z,14.10
2023-03-31T10:01:15.509Z,13.90
2023-03-31T10:03:52.317Z,13.80
2023-03-31T10:06:20.600Z,13.80
2023-03-31T10:08:54.239Z,13.90
2023-03-31T10:11:21.975Z,13.80
2023-03-31T10:13:58.727Z,13.80
2023-03-31T10:16:30.813Z,13.70
2023-03-31T10:19:21.946Z,13.70
2023-03-31T10:21:59.414Z,13.40
2023-03-31T10:24:27.757Z,13.30
2023-03-31T10:26:57.206Z,13.10
2023-03-31T10:29:34.999Z,12.80
2023-03-31T10:32:13.936Z,12.50
2023-03-31T10:34:42.948Z,12.40
2023-03-31T10:37:22.562Z,12.30
2023-03-31T10:39:58.947Z,12.40
2023-03-31T10:42:27.512Z,12.50
2023-03-31T10:45:35.663Z,12.90
2023-03-31T10:48:03.195Z,12.80
2023-03-31T10:50:39.330Z,12.70
2023-03-31T10:53:17.397Z,12.80
2023-03-31T10:56:12.359Z,12.90
2023-03-31T10:59:05.224Z,13.30
2023-03-31T11:02:03.209Z,13.40
2023-03-31T11:04:47.145Z,13.50
2023-03-31T11:07:34.185Z,13.60
2023-03-31T11:10:28.825Z,13.40
2023-03-31T11:13:19.540Z,13.40
2023-03-31T11:15:54.443Z,13.30
2023-03-31T11:19:03.468Z,13.10
2023-03-31T11:21:57.713Z,12.90
2023-03-31T11:24:54.347Z,12.80
2023-03-31T11:27:44.403Z,12.80
2023-03-31T11:30:22.001Z,12.90
2023-03-31T11:33:07.007Z,13.10
2023-03-31T11:35:54.648Z,13.00
2023-03-31T11:38:40.623Z,13.10
2023-03-31T11:41:19.312Z,13.10
2023-03-31T11:43:49.028Z,13.00
2023-03-31T11:46:30.857Z,13.00
2023-03-31T11:49:01.530Z,13.20
2023-03-31T11:51:33.674Z,13.10
2023-03-31T11:54:12.109Z,13.00
2023-03-31T11:56:41.382Z,12.90
2023-03-31T11:59:14.802Z,13.30
2023-03-31T12:01:44.595Z,13.20
2023-03-31T12:04:18.702Z,13.10
2023-03-31T12:06:49.542Z,13.10
2023-03-31T12:09:38.656Z,12.90
2023-03-31T12:12:30.043Z,12.90
2023-03-31T12:15:11.067Z,12.80
2023-03-31T12:17:41.764Z,12.80
2023-03-31T12:20:26.887Z,12.60
2023-03-31T12:22:55.354Z,12.00
2023-03-31T12:25:23.197Z,11.50
2023-03-31T12:27:51.544Z,11.10
2023-03-31T12:30:35.008Z,11.00
2023-03-31T12:33:15.770Z,10.80
2023-03-31T12:36:09.615Z,10.80
2023-03-31T12:38:55.654Z,11.00
2023-03-31T12:41:46.770Z,11.10
2023-03-31T12:44:24.480Z,11.20
2023-03-31T12:47:29.023Z,11.20
2023-03-31T12:50:04.218Z,11.20
2023-03-31T12:52:45.805Z,11.20
2023-03-31T12:55:22.266Z,11.10
2023-03-31T12:57:49.357Z,11.10
2023-03-31T13:00:24.835Z,11.10
2023-03-31T13:03:30.426Z,11.10
2023-03-31T13:05:57.458Z,10.90
2023-03-31T13:08:50.103Z,10.80
2023-03-31T13:11:18.540Z,10.70
2023-03-31T13:14:00.620Z,10.60
2023-03-31T13:16:29.303Z,10.70
2023-03-31T13:18:56.777Z,10.70
2023-03-31T13:21:24.795Z,10.50
2023-03-31T13:23:53.566Z,10.50
2023-03-31T13:26:46.275Z,10.50
2023-03-31T13:29:19.470Z,10.60
2023-03-31T13:32:01.980Z,10.60
2023-03-31T13:34:50.049Z,10.60
2023-03-31T13:37:22.784Z,10.60
2023-03-31T13:40:17.241Z,10.60
2023-03-31T13:43:03.210Z,10.60
2023-03-31T13:45:35.892Z,10.60
2023-03-31T13:48:34.438Z,10.50
2023-03-31T13:51:25.653Z,10.40
2023-03-31T13:53:58.498Z,10.40
2023-03-31T13:57:02.870Z,10.40
2023-03-31T13:59:29.899Z,10.40
2023-03-31T14:02:20.893Z,10.40
2023-03-31T14:05:05.344Z,10.30
2023-03-31T14:07:38.700Z,10.30
2023-03-31T14:10:07.253Z,10.30
2023-03-31T14:12:38.366Z,10.30
2023-03-31T14:15:07.129Z,10.20
2023-03-31T14:17:40.026Z,10.30
2023-03-31T14:20:24.996Z,10.20
2023-03-31T14:23:18.536Z,10.30
2023-03-31T14:26:04.932Z,10.20
2023-03-31T14:28:32.314Z,10.10
2023-03-31T14:31:11.202Z,10.10
2023-03-31T14:34:05.452Z,10.10
2023-03-31T14:36:38.935Z,10.10
2023-03-31T14:39:10.255Z,10.10
2023-03-31T14:41:38.013Z,10.10
2023-03-31T14:44:07.211Z,10.10
2023-03-31T14:46:38.509Z,10.00
2023-03-31T14:49:22.235Z,10.00
2023-03-31T14:51:49.209Z,10.10
2023-03-31T14:54:18.727Z,10.10
2023-03-31T14:56:50.572Z,10.20
2023-03-31T14:59:22.658Z,10.30
2023-03-31T15:01:51.248Z,10.20
2023-03-31T15:04:31.742Z,10.20
2023-03-31T15:07:06.541Z,10.30
2023-03-31T15:09:36.297Z,10.20
2023-03-31T15:12:11.385Z,10.30
2023-03-31T15:15:08.296Z,10.20
2023-03-31T15:17:41.422Z,10.20
2023-03-31T15:20:29.984Z,10.30
2023-03-31T15:22:59.131Z,10.40
2023-03-31T15:25:34.207Z,10.40
2023-03-31T15:28:05.895Z,10.40
2023-03-31T15:30:34.180Z,10.40
2023-03-31T15:35:49.747Z,10.50
2023-03-31T15:38:18.715Z,10.50
2023-03-31T15:40:52.906Z,10.50
2023-03-31T15:43:50.632Z,10.40
2023-03-31T15:46:25.579Z,10.50
2023-03-31T15:48:56.349Z,10.50
2023-03-31T15:51:34.046Z,10.60
2023-03-31T15:54:01.208Z,10.50
2023-03-31T15:56:41.992Z,10.50
2023-03-31T15:59:33.823Z,10.50
2023-03-31T16:02:05.961Z,10.50
2023-03-31T16:04:33.635Z,10.70
2023-03-31T16:07:16.198Z,10.70
2023-03-31T16:09:50.836Z,10.60
2023-03-31T16:12:43.609Z,10.50
2023-03-31T16:15:23.814Z,10.50
2023-03-31T16:18:08.956Z,10.50
2023-03-31T16:20:40.749Z,10.60
2023-03-31T16:23:18.535Z,10.60
2023-03-31T16:25:46.581Z,10.50
2023-03-31T16:28:20.658Z,10.50
2023-03-31T16:30:48.101Z,10.40
2023-03-31T16:33:18.535Z,10.40
2023-03-31T16:35:53.583Z,10.30
2023-03-31T16:38:22.304Z,10.40
2023-03-31T16:40:52.965Z,10.30
2023-03-31T16:43:21.573Z,10.30
2023-03-31T16:45:54.284Z,10.20
2023-03-31T16:48:23.021Z,10.20
2023-03-31T16:50:52.970Z,10.20
2023-03-31T16:53:43.047Z,10.20
2023-03-31T16:56:11.825Z,10.10
2023-03-31T16:58:39.618Z,10.10
2023-03-31T17:01:07.935Z,10.00
2023-03-31T17:03:39.827Z,10.00
2023-03-31T17:06:12.636Z,10.00
2023-03-31T17:08:39.981Z,9.90
2023-03-31T17:11:12.564Z,9.90
2023-03-31T17:13:41.830Z,9.90
2023-03-31T17:18:56.516Z,9.90
2023-03-31T17:21:24.279Z,9.80
2023-03-31T17:23:51.146Z,9.80
2023-03-31T17:26:18.584Z,9.80
2023-03-31T17:28:45.648Z,9.70
2023-03-31T17:31:14.877Z,9.70
2023-03-31T17:33:43.797Z,9.70
2023-03-31T17:36:11.622Z,9.70
2023-03-31T17:38:41.309Z,9.70
2023-03-31T17:41:12.901Z,9.70
2023-03-31T17:43:40.210Z,9.70
2023-03-31T17:46:12.241Z,9.70
2023-03-31T17:48:41.064Z,9.60
2023-03-31T17:51:09.505Z,9.60
2023-03-31T17:53:36.716Z,9.60
2023-03-31T17:56:04.674Z,9.60
2023-03-31T17:58:32.435Z,9.60
2023-03-31T18:00:59.711Z,9.50
2023-03-31T18:03:30.028Z,9.50
2023-03-31T18:05:57.674Z,9.40
2023-03-31T18:08:24.718Z,9.30
2023-03-31T18:10:52.058Z,9.30
2023-03-31T18:13:19.241Z,9.30
2023-03-31T18:15:51.467Z,9.30
2023-03-31T18:18:19.558Z,9.40
2023-03-31T18:20:47.166Z,9.40
2023-03-31T18:23:14.837Z,9.40
2023-03-31T18:25:46.252Z,9.30
2023-03-31T18:28:14.740Z,9.40
2023-03-31T18:30:41.699Z,9.40
2023-03-31T18:33:09.062Z,9.30
2023-03-31T18:35:37.090Z,9.30
2023-03-31T18:38:04.052Z,9.30
2023-03-31T18:40:31.028Z,9.30
2023-03-31T18:42:58.172Z,9.30
2023-03-31T18:45:25.160Z,9.30
2023-03-31T18:47:52.897Z,9.30
2023-03-31T18:50:20.400Z,9.30
2023-03-31T18:52:48.423Z,9.30
2023-03-31T18:55:15.979Z,9.30
2023-03-31T18:57:45.279Z,9.30
2023-03-31T19:00:12.919Z,9.30
2023-03-31T19:02:40.154Z,9.30
2023-03-31T19:05:07.487Z,9.30
2023-03-31T19:07:35.164Z,9.30
2023-03-31T19:10:02.037Z,9.30
2023-03-31T19:12:30.535Z,9.30
2023-03-31T19:14:58.162Z,9.30
2023-03-31T19:17:25.265Z,9.30
2023-03-31T19:19:52.607Z,9.30
2023-03-31T19:22:19.716Z,9.30
2023-03-31T19:24:47.233Z,9.30
2023-03-31T19:27:14.312Z,9.30
2023-03-31T19:29:41.167Z,9.30
2023-03-31T19:32:10.598Z,9.30
2023-03-31T19:34:38.232Z,9.30
2023-03-31T19:37:05.175Z,9.30
2023-03-31T19:39:32.295Z,9.40
2023-03-31T19:42:00.197Z,9.30
2023-03-31T19:44:27.172Z,9.30
2023-03-31T19:46:54.246Z,9.30
2023-03-31T19:49:21.369Z,9.30
2023-03-31T19:51:48.169Z,9.20
2023-03-31T19:54:15.107Z,9.20
2023-03-31T19:56:42.021Z,9.20
2023-03-31T19:59:09.143Z,9.20
2023-03-31T20:01:36.548Z,9.20
2023-03-31T20:04:04.134Z,9.20
2023-03-31T20:06:31.838Z,9.30
2023-03-31T20:09:00.823Z,9.20
2023-03-31T20:11:30.747Z,9.20
2023-03-31T20:13:58.785Z,9.20
2023-03-31T20:16:28.216Z,9.20
2023-03-31T20:19:01.196Z,9.20
2023-03-31T20:21:29.950Z,9.20
2023-03-31T20:23:58.776Z,9.10
2023-03-31T20:26:29.932Z,9.20
2023-03-31T20:28:58.131Z,9.10
2023-03-31T20:31:26.321Z,9.10
2023-03-31T20:33:54.273Z,9.10
2023-03-31T20:36:23.729Z,9.10
2023-03-31T20:38:53.117Z,9.10
2023-03-31T20:41:23.903Z,9.10
2023-03-31T20:43:51.136Z,9.00
2023-03-31T20:46:18.802Z,9.00
2023-03-31T20:48:51.423Z,9.00
2023-03-31T20:51:21.921Z,8.90
2023-03-31T20:53:52.961Z,9.00
2023-03-31T20:56:25.921Z,8.90
2023-03-31T20:58:54.638Z,8.90
2023-03-31T21:01:22.214Z,8.90
2023-03-31T21:03:50.041Z,8.90
2023-03-31T21:06:18.555Z,8.90
2023-03-31T21:08:46.722Z,8.90
2023-03-31T21:11:14.701Z,8.90
2023-03-31T21:13:41.637Z,8.80
2023-03-31T21:16:08.515Z,8.80
2023-03-31T21:18:37.472Z,8.80
2023-03-31T21:21:11.100Z,8.80
2023-03-31T21:23:38.831Z,8.70
2023-03-31T21:26:07.685Z,8.80
2023-03-31T21:28:36.994Z,8.70
2023-03-31T21:31:05.600Z,8.80
2023-03-31T21:33:34.812Z,8.80
2023-03-31T21:36:01.639Z,8.70
2023-03-31T21:38:28.636Z,8.70
2023-03-31T21:40:55.838Z,8.70
2023-03-31T21:43:23.727Z,8.80
2023-03-31T21:45:53.316Z,8.70
2023-03-31T21:48:25.299Z,8.70
2023-03-31T21:50:54.665Z,8.70
2023-03-31T21:53:22.689Z,8.70
2023-03-31T21:55:55.372Z,8.70
2023-03-31T21:58:28.779Z,8.70
2023-03-31T22:00:58.024Z,8.70
2023-03-31T22:03:28.992Z,8.60
2023-03-31T22:05:57.281Z,8.60
2023-03-31T22:08:24.818Z,8.60
2023-03-31T22:10:52.228Z,8.70
2023-03-31T22:13:23.040Z,8.70
2023-03-31T22:15:50.330Z,8.60
2023-03-31T22:18:17.524Z,8.60
2023-03-31T22:20:45.271Z,8.60
2023-03-31T22:23:12.363Z,8.60
2023-03-31T22:25:42.155Z,8.70
2023-03-31T22:28:09.420Z,8.70
2023-03-31T22:30:36.738Z,8.60
2023-03-31T22:33:03.925Z,8.60
2023-03-31T22:35:31.363Z,8.60
2023-03-31T22:37:58.592Z,8.60
2023-03-31T22:40:25.541Z,8.60
2023-03-31T22:42:54.685Z,8.50
2023-03-31T22:45:21.590Z,8.50
2023-03-31T22:47:48.735Z,8.50
2023-03-31T22:50:16.097Z,8.50
2023-03-31T22:52:45.070Z,8.50
2023-03-31T22:55:11.928Z,8.50
2023-03-31T22:57:39.197Z,8.50
2023-03-31T23:00:06.704Z,8.50
2023-03-31T23:02:33.647Z,8.50
2023-03-31T23:05:00.639Z,8.60
2023-03-31T23:07:28.035Z,8.60
2023-03-31T23:09:54.861Z,8.60
2023-03-31T23:12:21.675Z,8.60
2023-03-31T23:14:48.532Z,8.60
2023-03-31T23:17:15.660Z,8.60
2023-03-31T23:19:43.132Z,8.60
2023-03-31T23:22:09.991Z,8.60
2023-03-31T23:24:36.927Z,8.60
2023-03-31T23:27:03.989Z,8.60
2023-03-31T23:29:31.619Z,8.60
2023-03-31T23:31:58.575Z,8.60
2023-03-31T23:34:25.429Z,8.50
2023-03-31T23:36:52.867Z,8.50
2023-03-31T23:39:19.660Z,8.50
2023-03-31T23:41:47.890Z,8.50
2023-03-31T23:44:14.710Z,8.50
2023-03-31T23:46:43.336Z,8.60
2023-03-31T23:49:10.559Z,8.50
2023-03-31T23:51:37.300Z,8.60
2023-03-31T23:54:04.044Z,8.60
2023-03-31T23:56:30.970Z,8.60
2023-03-31T23:58:57.815Z,8.60
